sensor_id;sensor_type;location;lat;lon;timestamp;P1;durP1;ratioP1;P2;durP2;ratioP2
12511;SDS011;6321;53.798;10.382;2023-04-03T00:00:55;5.17;;;2.60;;
12511;SDS011;6321;53.798;10.382;2023-04-03T00:03:21;7.97;;;2.83;;
12511;SDS011;6321;53.798;10.382;2023-04-03T00:05:47;7.53;;;2.73;;
12511;SDS011;6321;53.798;10.382;2023-04-03T00:08:13;4.80;;;2.37;;
12511;SDS011;6321;53.798;10.382;2023-04-03T00:10:40;6.53;;;2.20;;
12511;SDS011;6321;53.798;10.382;2023-04-03T00:13:06;4.87;;;2.80;;
12511;SDS011;6321;53.798;10.382;2023-04-03T00:15:32;4.47;;;2.53;;
12511;SDS011;6321;53.798;10.382;2023-04-03T00:17:58;7.57;;;2.80;;
12511;SDS011;6321;53.798;10.382;2023-04-03T00:20:25;6.80;;;3.23;;
12511;SDS011;6321;53.798;10.382;2023-04-03T00:22:52;6.50;;;3.27;;
12511;SDS011;6321;53.798;10.382;2023-04-03T00:25:18;7.00;;;3.43;;
12511;SDS011;6321;53.798;10.382;2023-04-03T00:27:44;8.83;;;3.07;;
12511;SDS011;6321;53.798;10.382;2023-04-03T00:30:11;7.67;;;3.30;;
12511;SDS011;6321;53.798;10.382;2023-04-03T00:32:38;8.50;;;3.63;;
12511;SDS011;6321;53.798;10.382;2023-04-03T00:35:04;4.13;;;2.60;;
12511;SDS011;6321;53.798;10.382;2023-04-03T00:37:30;8.77;;;2.80;;
12511;SDS011;6321;53.798;10.382;2023-04-03T00:39:56;6.27;;;3.47;;
12511;SDS011;6321;53.798;10.382;2023-04-03T00:42:22;5.63;;;3.37;;
12511;SDS011;6321;53.798;10.382;2023-04-03T00:47:16;7.77;;;3.20;;
12511;SDS011;6321;53.798;10.382;2023-04-03T00:49:42;8.80;;;3.03;;
12511;SDS011;6321;53.798;10.382;2023-04-03T00:52:10;6.97;;;3.00;;
12511;SDS011;6321;53.798;10.382;2023-04-03T00:54:37;5.97;;;3.33;;
12511;SDS011;6321;53.798;10.382;2023-04-03T00:57:04;5.53;;;2.77;;
12511;SDS011;6321;53.798;10.382;2023-04-03T00:59:31;6.60;;;2.80;;
12511;SDS011;6321;53.798;10.382;2023-04-03T01:01:59;5.37;;;3.20;;
12511;SDS011;6321;53.798;10.382;2023-04-03T01:04:32;4.97;;;2.50;;
12511;SDS011;6321;53.798;10.382;2023-04-03T01:07:00;5.03;;;2.57;;
12511;SDS011;6321;53.798;10.382;2023-04-03T01:09:28;9.37;;;3.40;;
12511;SDS011;6321;53.798;10.382;2023-04-03T01:12:12;6.23;;;3.63;;
12511;SDS011;6321;53.798;10.382;2023-04-03T01:14:38;6.50;;;2.73;;
12511;SDS011;6321;53.798;10.382;2023-04-03T01:17:20;6.20;;;2.93;;
12511;SDS011;6321;53.798;10.382;2023-04-03T01:19:47;4.07;;;2.50;;
12511;SDS011;6321;53.798;10.382;2023-04-03T01:22:19;3.57;;;2.60;;
12511;SDS011;6321;53.798;10.382;2023-04-03T01:24:50;6.83;;;2.57;;
12511;SDS011;6321;53.798;10.382;2023-04-03T01:27:18;4.87;;;2.27;;
12511;SDS011;6321;53.798;10.382;2023-04-03T01:29:44;4.77;;;2.97;;
12511;SDS011;6321;53.798;10.382;2023-04-03T01:32:11;5.57;;;2.80;;
12511;SDS011;6321;53.798;10.382;2023-04-03T01:34:37;3.73;;;2.53;;
12511;SDS011;6321;53.798;10.382;2023-04-03T01:37:03;4.87;;;2.87;;
12511;SDS011;6321;53.798;10.382;2023-04-03T01:39:29;6.53;;;3.03;;
12511;SDS011;6321;53.798;10.382;2023-04-03T01:41:55;3.90;;;2.30;;
12511;SDS011;6321;53.798;10.382;2023-04-03T01:44:21;3.80;;;2.20;;
12511;SDS011;6321;53.798;10.382;2023-04-03T01:46:47;3.63;;;2.87;;
12511;SDS011;6321;53.798;10.382;2023-04-03T01:49:13;3.87;;;2.30;;
12511;SDS011;6321;53.798;10.382;2023-04-03T01:51:39;4.47;;;2.40;;
12511;SDS011;6321;53.798;10.382;2023-04-03T01:54:05;8.23;;;3.13;;
12511;SDS011;6321;53.798;10.382;2023-04-03T01:56:31;4.47;;;2.70;;
12511;SDS011;6321;53.798;10.382;2023-04-03T01:58:57;7.17;;;3.13;;
12511;SDS011;6321;53.798;10.382;2023-04-03T02:01:23;7.27;;;2.47;;
12511;SDS011;6321;53.798;10.382;2023-04-03T02:03:50;4.57;;;2.77;;
12511;SDS011;6321;53.798;10.382;2023-04-03T02:06:16;5.33;;;3.00;;
12511;SDS011;6321;53.798;10.382;2023-04-03T02:08:42;8.57;;;3.20;;
12511;SDS011;6321;53.798;10.382;2023-04-03T02:11:08;5.43;;;2.80;;
12511;SDS011;6321;53.798;10.382;2023-04-03T02:13:34;8.50;;;2.67;;
12511;SDS011;6321;53.798;10.382;2023-04-03T02:16:05;6.87;;;3.30;;
12511;SDS011;6321;53.798;10.382;2023-04-03T02:18:31;3.70;;;2.60;;
12511;SDS011;6321;53.798;10.382;2023-04-03T02:20:57;3.67;;;2.70;;
12511;SDS011;6321;53.798;10.382;2023-04-03T02:23:23;4.13;;;2.60;;
12511;SDS011;6321;53.798;10.382;2023-04-03T02:25:49;5.43;;;2.63;;
12511;SDS011;6321;53.798;10.382;2023-04-03T02:28:15;5.37;;;2.70;;
12511;SDS011;6321;53.798;10.382;2023-04-03T02:30:41;4.40;;;2.63;;
12511;SDS011;6321;53.798;10.382;2023-04-03T02:33:07;7.23;;;3.03;;
12511;SDS011;6321;53.798;10.382;2023-04-03T02:35:33;9.40;;;3.87;;
12511;SDS011;6321;53.798;10.382;2023-04-03T02:37:59;7.40;;;3.97;;
12511;SDS011;6321;53.798;10.382;2023-04-03T02:40:25;6.90;;;3.60;;
12511;SDS011;6321;53.798;10.382;2023-04-03T02:42:51;8.60;;;3.57;;
12511;SDS011;6321;53.798;10.382;2023-04-03T02:45:16;6.93;;;3.77;;
12511;SDS011;6321;53.798;10.382;2023-04-03T02:47:42;9.07;;;3.00;;
12511;SDS011;6321;53.798;10.382;2023-04-03T02:52:44;4.57;;;3.27;;
12511;SDS011;6321;53.798;10.382;2023-04-03T02:55:13;6.73;;;3.10;;
12511;SDS011;6321;53.798;10.382;2023-04-03T02:57:40;8.13;;;3.10;;
12511;SDS011;6321;53.798;10.382;2023-04-03T03:00:06;5.73;;;3.43;;
12511;SDS011;6321;53.798;10.382;2023-04-03T03:02:33;6.33;;;3.13;;
12511;SDS011;6321;53.798;10.382;2023-04-03T03:05:00;5.73;;;3.30;;
12511;SDS011;6321;53.798;10.382;2023-04-03T03:07:26;8.40;;;4.10;;
12511;SDS011;6321;53.798;10.382;2023-04-03T03:09:52;6.40;;;3.47;;
12511;SDS011;6321;53.798;10.382;2023-04-03T03:12:18;7.70;;;4.37;;
12511;SDS011;6321;53.798;10.382;2023-04-03T03:14:46;7.13;;;4.27;;
12511;SDS011;6321;53.798;10.382;2023-04-03T03:17:12;8.03;;;4.17;;
12511;SDS011;6321;53.798;10.382;2023-04-03T03:19:38;11.27;;;3.20;;
12511;SDS011;6321;53.798;10.382;2023-04-03T03:22:04;7.47;;;3.07;;
12511;SDS011;6321;53.798;10.382;2023-04-03T03:24:30;5.80;;;3.07;;
12511;SDS011;6321;53.798;10.382;2023-04-03T03:26:56;6.43;;;3.40;;
12511;SDS011;6321;53.798;10.382;2023-04-03T03:29:22;5.07;;;3.03;;
12511;SDS011;6321;53.798;10.382;2023-04-03T03:31:48;4.97;;;3.00;;
12511;SDS011;6321;53.798;10.382;2023-04-03T03:34:14;6.43;;;2.80;;
12511;SDS011;6321;53.798;10.382;2023-04-03T03:36:40;6.60;;;3.60;;
12511;SDS011;6321;53.798;10.382;2023-04-03T03:39:06;4.73;;;3.17;;
12511;SDS011;6321;53.798;10.382;2023-04-03T03:41:32;9.43;;;3.57;;
12511;SDS011;6321;53.798;10.382;2023-04-03T03:43:58;7.93;;;3.23;;
12511;SDS011;6321;53.798;10.382;2023-04-03T03:46:24;5.67;;;3.47;;
12511;SDS011;6321;53.798;10.382;2023-04-03T03:48:50;5.33;;;3.53;;
12511;SDS011;6321;53.798;10.382;2023-04-03T03:51:16;6.47;;;3.43;;
12511;SDS011;6321;53.798;10.382;2023-04-03T03:53:42;4.33;;;2.77;;
12511;SDS011;6321;53.798;10.382;2023-04-03T03:56:08;5.57;;;2.80;;
12511;SDS011;6321;53.798;10.382;2023-04-03T03:58:34;5.13;;;3.20;;
12511;SDS011;6321;53.798;10.382;2023-04-03T04:01:01;5.97;;;2.93;;
12511;SDS011;6321;53.798;10.382;2023-04-03T04:03:27;5.37;;;2.80;;
12511;SDS011;6321;53.798;10.382;2023-04-03T04:05:53;6.70;;;3.40;;
12511;SDS011;6321;53.798;10.382;2023-04-03T04:08:23;4.30;;;2.73;;
12511;SDS011;6321;53.798;10.382;2023-04-03T04:10:49;4.13;;;3.03;;
12511;SDS011;6321;53.798;10.382;2023-04-03T04:13:15;4.37;;;3.30;;
12511;SDS011;6321;53.798;10.382;2023-04-03T04:15:41;4.73;;;2.80;;
12511;SDS011;6321;53.798;10.382;2023-04-03T04:18:10;4.20;;;2.70;;
12511;SDS011;6321;53.798;10.382;2023-04-03T04:20:36;5.23;;;2.87;;
12511;SDS011;6321;53.798;10.382;2023-04-03T04:23:02;3.37;;;2.40;;
12511;SDS011;6321;53.798;10.382;2023-04-03T04:25:28;6.17;;;3.23;;
12511;SDS011;6321;53.798;10.382;2023-04-03T04:27:54;5.43;;;2.63;;
12511;SDS011;6321;53.798;10.382;2023-04-03T04:30:20;5.63;;;2.70;;
12511;SDS011;6321;53.798;10.382;2023-04-03T04:32:46;6.37;;;2.80;;
12511;SDS011;6321;53.798;10.382;2023-04-03T04:35:12;6.80;;;3.40;;
12511;SDS011;6321;53.798;10.382;2023-04-03T04:37:38;5.70;;;2.97;;
12511;SDS011;6321;53.798;10.382;2023-04-03T04:40:07;5.37;;;3.07;;
12511;SDS011;6321;53.798;10.382;2023-04-03T04:42:33;7.13;;;2.80;;
12511;SDS011;6321;53.798;10.382;2023-04-03T04:45:00;7.73;;;3.07;;
12511;SDS011;6321;53.798;10.382;2023-04-03T04:47:26;6.07;;;3.20;;
12511;SDS011;6321;53.798;10.382;2023-04-03T04:49:53;8.30;;;2.77;;
12511;SDS011;6321;53.798;10.382;2023-04-03T04:52:19;5.07;;;3.17;;
12511;SDS011;6321;53.798;10.382;2023-04-03T04:54:45;5.40;;;2.87;;
12511;SDS011;6321;53.798;10.382;2023-04-03T04:57:11;7.20;;;3.10;;
12511;SDS011;6321;53.798;10.382;2023-04-03T04:59:37;5.73;;;3.00;;
12511;SDS011;6321;53.798;10.382;2023-04-03T05:02:03;4.87;;;2.70;;
12511;SDS011;6321;53.798;10.382;2023-04-03T05:04:29;4.23;;;3.20;;
12511;SDS011;6321;53.798;10.382;2023-04-03T05:06:55;4.90;;;3.77;;
12511;SDS011;6321;53.798;10.382;2023-04-03T05:09:21;3.70;;;2.53;;
12511;SDS011;6321;53.798;10.382;2023-04-03T05:11:47;4.43;;;3.10;;
12511;SDS011;6321;53.798;10.382;2023-04-03T05:14:13;7.00;;;3.17;;
12511;SDS011;6321;53.798;10.382;2023-04-03T05:16:39;6.87;;;3.50;;
12511;SDS011;6321;53.798;10.382;2023-04-03T05:19:05;3.03;;;2.73;;
12511;SDS011;6321;53.798;10.382;2023-04-03T05:21:31;4.83;;;3.07;;
12511;SDS011;6321;53.798;10.382;2023-04-03T05:23:58;7.63;;;2.80;;
12511;SDS011;6321;53.798;10.382;2023-04-03T05:26:24;4.03;;;3.00;;
12511;SDS011;6321;53.798;10.382;2023-04-03T05:28:51;5.90;;;2.97;;
12511;SDS011;6321;53.798;10.382;2023-04-03T05:31:17;6.30;;;3.37;;
12511;SDS011;6321;53.798;10.382;2023-04-03T05:33:43;4.30;;;3.40;;
12511;SDS011;6321;53.798;10.382;2023-04-03T05:36:09;8.30;;;3.63;;
12511;SDS011;6321;53.798;10.382;2023-04-03T05:38:35;7.47;;;4.17;;
12511;SDS011;6321;53.798;10.382;2023-04-03T05:41:01;9.57;;;4.73;;
12511;SDS011;6321;53.798;10.382;2023-04-03T05:43:27;8.23;;;5.23;;
12511;SDS011;6321;53.798;10.382;2023-04-03T05:45:53;11.10;;;5.33;;
12511;SDS011;6321;53.798;10.382;2023-04-03T05:48:19;14.30;;;5.60;;
12511;SDS011;6321;53.798;10.382;2023-04-03T05:50:45;12.13;;;6.00;;
12511;SDS011;6321;53.798;10.382;2023-04-03T05:53:22;11.47;;;6.40;;
12511;SDS011;6321;53.798;10.382;2023-04-03T05:55:50;13.33;;;7.13;;
12511;SDS011;6321;53.798;10.382;2023-04-03T05:58:16;16.80;;;8.00;;
12511;SDS011;6321;53.798;10.382;2023-04-03T06:00:42;13.10;;;7.97;;
12511;SDS011;6321;53.798;10.382;2023-04-03T06:03:08;13.87;;;7.93;;
12511;SDS011;6321;53.798;10.382;2023-04-03T06:05:34;11.87;;;6.83;;
12511;SDS011;6321;53.798;10.382;2023-04-03T06:08:00;13.13;;;7.70;;
12511;SDS011;6321;53.798;10.382;2023-04-03T06:10:26;16.67;;;8.37;;
12511;SDS011;6321;53.798;10.382;2023-04-03T06:12:52;14.80;;;8.17;;
12511;SDS011;6321;53.798;10.382;2023-04-03T06:15:18;14.20;;;7.97;;
12511;SDS011;6321;53.798;10.382;2023-04-03T06:17:44;16.23;;;8.90;;
12511;SDS011;6321;53.798;10.382;2023-04-03T06:20:10;17.73;;;9.27;;
12511;SDS011;6321;53.798;10.382;2023-04-03T06:22:37;15.57;;;8.70;;
12511;SDS011;6321;53.798;10.382;2023-04-03T06:25:03;17.93;;;10.00;;
12511;SDS011;6321;53.798;10.382;2023-04-03T06:27:29;20.20;;;9.10;;
12511;SDS011;6321;53.798;10.382;2023-04-03T06:29:55;11.00;;;6.70;;
12511;SDS011;6321;53.798;10.382;2023-04-03T06:32:21;18.47;;;7.33;;
12511;SDS011;6321;53.798;10.382;2023-04-03T06:34:48;15.30;;;6.27;;
12511;SDS011;6321;53.798;10.382;2023-04-03T06:37:17;11.07;;;6.23;;
12511;SDS011;6321;53.798;10.382;2023-04-03T06:39:45;13.40;;;7.37;;
12511;SDS011;6321;53.798;10.382;2023-04-03T06:42:11;10.17;;;6.13;;
12511;SDS011;6321;53.798;10.382;2023-04-03T06:44:37;11.87;;;6.17;;
12511;SDS011;6321;53.798;10.382;2023-04-03T06:47:03;9.60;;;6.43;;
12511;SDS011;6321;53.798;10.382;2023-04-03T06:49:29;12.57;;;6.67;;
12511;SDS011;6321;53.798;10.382;2023-04-03T06:51:55;13.43;;;11.37;;
12511;SDS011;6321;53.798;10.382;2023-04-03T06:54:21;15.90;;;10.27;;
12511;SDS011;6321;53.798;10.382;2023-04-03T06:56:47;14.50;;;9.60;;
12511;SDS011;6321;53.798;10.382;2023-04-03T06:59:13;17.93;;;9.00;;
12511;SDS011;6321;53.798;10.382;2023-04-03T07:01:40;14.73;;;7.90;;
12511;SDS011;6321;53.798;10.382;2023-04-03T07:04:06;12.00;;;8.70;;
12511;SDS011;6321;53.798;10.382;2023-04-03T07:06:33;12.77;;;7.33;;
12511;SDS011;6321;53.798;10.382;2023-04-03T07:08:59;11.97;;;6.73;;
12511;SDS011;6321;53.798;10.382;2023-04-03T07:11:25;11.00;;;6.17;;
12511;SDS011;6321;53.798;10.382;2023-04-03T07:13:52;7.97;;;4.67;;
12511;SDS011;6321;53.798;10.382;2023-04-03T07:16:18;7.80;;;3.07;;
12511;SDS011;6321;53.798;10.382;2023-04-03T07:18:44;10.33;;;2.97;;
12511;SDS011;6321;53.798;10.382;2023-04-03T07:21:11;6.27;;;2.30;;
12511;SDS011;6321;53.798;10.382;2023-04-03T07:23:37;4.17;;;2.53;;
12511;SDS011;6321;53.798;10.382;2023-04-03T07:26:03;5.57;;;2.47;;
12511;SDS011;6321;53.798;10.382;2023-04-03T07:28:29;5.60;;;2.77;;
12511;SDS011;6321;53.798;10.382;2023-04-03T07:33:25;6.20;;;2.30;;
12511;SDS011;6321;53.798;10.382;2023-04-03T07:35:51;3.87;;;2.00;;
12511;SDS011;6321;53.798;10.382;2023-04-03T07:38:17;3.57;;;1.90;;
12511;SDS011;6321;53.798;10.382;2023-04-03T07:40:47;5.67;;;1.87;;
12511;SDS011;6321;53.798;10.382;2023-04-03T07:43:13;5.37;;;2.23;;
12511;SDS011;6321;53.798;10.382;2023-04-03T07:45:39;5.40;;;2.27;;
12511;SDS011;6321;53.798;10.382;2023-04-03T07:48:05;5.00;;;2.70;;
12511;SDS011;6321;53.798;10.382;2023-04-03T07:50:32;5.27;;;1.80;;
12511;SDS011;6321;53.798;10.382;2023-04-03T07:52:58;5.97;;;1.93;;
12511;SDS011;6321;53.798;10.382;2023-04-03T07:55:24;2.60;;;1.70;;
12511;SDS011;6321;53.798;10.382;2023-04-03T07:57:50;2.60;;;1.80;;
12511;SDS011;6321;53.798;10.382;2023-04-03T08:00:16;3.83;;;1.63;;
12511;SDS011;6321;53.798;10.382;2023-04-03T08:02:43;3.80;;;1.60;;
12511;SDS011;6321;53.798;10.382;2023-04-03T08:05:09;4.43;;;1.50;;
12511;SDS011;6321;53.798;10.382;2023-04-03T08:07:36;2.40;;;1.50;;
12511;SDS011;6321;53.798;10.382;2023-04-03T08:10:03;5.67;;;1.80;;
12511;SDS011;6321;53.798;10.382;2023-04-03T08:12:29;3.43;;;1.77;;
12511;SDS011;6321;53.798;10.382;2023-04-03T08:14:56;2.57;;;1.63;;
12511;SDS011;6321;53.798;10.382;2023-04-03T08:17:22;4.10;;;1.77;;
12511;SDS011;6321;53.798;10.382;2023-04-03T08:19:48;5.90;;;1.97;;
12511;SDS011;6321;53.798;10.382;2023-04-03T08:22:15;3.50;;;1.60;;
12511;SDS011;6321;53.798;10.382;2023-04-03T08:24:41;14.50;;;9.83;;
12511;SDS011;6321;53.798;10.382;2023-04-03T08:27:07;6.17;;;2.20;;
12511;SDS011;6321;53.798;10.382;2023-04-03T08:29:33;5.17;;;1.90;;
12511;SDS011;6321;53.798;10.382;2023-04-03T08:31:59;2.73;;;2.03;;
12511;SDS011;6321;53.798;10.382;2023-04-03T08:34:25;4.67;;;1.80;;
12511;SDS011;6321;53.798;10.382;2023-04-03T08:36:51;4.53;;;2.13;;
12511;SDS011;6321;53.798;10.382;2023-04-03T08:39:17;7.73;;;1.70;;
12511;SDS011;6321;53.798;10.382;2023-04-03T08:41:44;4.90;;;1.90;;
12511;SDS011;6321;53.798;10.382;2023-04-03T08:49:03;3.43;;;1.80;;
12511;SDS011;6321;53.798;10.382;2023-04-03T08:51:29;3.23;;;1.90;;
12511;SDS011;6321;53.798;10.382;2023-04-03T08:53:59;5.10;;;1.97;;
12511;SDS011;6321;53.798;10.382;2023-04-03T08:56:27;4.00;;;2.00;;
12511;SDS011;6321;53.798;10.382;2023-04-03T08:58:57;1.97;;;1.50;;
12511;SDS011;6321;53.798;10.382;2023-04-03T09:01:30;18.37;;;3.77;;
12511;SDS011;6321;53.798;10.382;2023-04-03T09:04:00;2.90;;;1.67;;
12511;SDS011;6321;53.798;10.382;2023-04-03T09:06:27;3.47;;;1.50;;
12511;SDS011;6321;53.798;10.382;2023-04-03T09:09:20;4.87;;;1.73;;
12511;SDS011;6321;53.798;10.382;2023-04-03T09:11:54;2.53;;;1.30;;
12511;SDS011;6321;53.798;10.382;2023-04-03T09:14:28;3.57;;;1.70;;
12511;SDS011;6321;53.798;10.382;2023-04-03T09:16:58;2.90;;;1.53;;
12511;SDS011;6321;53.798;10.382;2023-04-03T09:21:51;5.10;;;1.53;;
12511;SDS011;6321;53.798;10.382;2023-04-03T09:24:17;2.83;;;1.63;;
12511;SDS011;6321;53.798;10.382;2023-04-03T09:26:44;2.90;;;1.67;;
12511;SDS011;6321;53.798;10.382;2023-04-03T09:29:14;6.70;;;1.90;;
12511;SDS011;6321;53.798;10.382;2023-04-03T09:31:42;3.60;;;1.57;;
12511;SDS011;6321;53.798;10.382;2023-04-03T09:34:17;2.13;;;1.30;;
12511;SDS011;6321;53.798;10.382;2023-04-03T09:36:50;3.50;;;1.37;;
12511;SDS011;6321;53.798;10.382;2023-04-03T09:39:26;1.77;;;1.40;;
12511;SDS011;6321;53.798;10.382;2023-04-03T09:42:38;3.80;;;1.50;;
12511;SDS011;6321;53.798;10.382;2023-04-03T09:44:40;2.10;;;1.03;;
12511;SDS011;6321;53.798;10.382;2023-04-03T09:47:19;3.03;;;1.33;;
12511;SDS011;6321;53.798;10.382;2023-04-03T09:49:48;2.30;;;1.10;;
12511;SDS011;6321;53.798;10.382;2023-04-03T09:52:22;1.83;;;1.33;;
12511;SDS011;6321;53.798;10.382;2023-04-03T09:54:49;2.13;;;1.00;;
12511;SDS011;6321;53.798;10.382;2023-04-03T09:57:15;4.07;;;1.23;;
12511;SDS011;6321;53.798;10.382;2023-04-03T09:59:43;1.77;;;1.20;;
12511;SDS011;6321;53.798;10.382;2023-04-03T10:02:21;4.47;;;1.60;;
12511;SDS011;6321;53.798;10.382;2023-04-03T10:04:48;3.27;;;1.47;;
12511;SDS011;6321;53.798;10.382;2023-04-03T10:07:28;3.60;;;1.53;;
12511;SDS011;6321;53.798;10.382;2023-04-03T10:09:57;2.03;;;1.20;;
12511;SDS011;6321;53.798;10.382;2023-04-03T10:12:23;1.50;;;1.00;;
12511;SDS011;6321;53.798;10.382;2023-04-03T10:20:22;4.07;;;1.13;;
12511;SDS011;6321;53.798;10.382;2023-04-03T10:22:59;2.83;;;1.33;;
12511;SDS011;6321;53.798;10.382;2023-04-03T10:27:56;2.40;;;1.87;;
12511;SDS011;6321;53.798;10.382;2023-04-03T10:33:14;3.47;;;1.47;;
12511;SDS011;6321;53.798;10.382;2023-04-03T10:38:12;1.47;;;1.00;;
12511;SDS011;6321;53.798;10.382;2023-04-03T10:40:52;4.70;;;1.10;;
12511;SDS011;6321;53.798;10.382;2023-04-03T10:43:33;2.60;;;1.43;;
12511;SDS011;6321;53.798;10.382;2023-04-03T10:46:03;2.30;;;1.30;;
12511;SDS011;6321;53.798;10.382;2023-04-03T10:51:18;3.47;;;1.63;;
12511;SDS011;6321;53.798;10.382;2023-04-03T10:56:35;1.53;;;1.20;;
12511;SDS011;6321;53.798;10.382;2023-04-03T10:59:08;1.57;;;1.10;;
12511;SDS011;6321;53.798;10.382;2023-04-03T11:01:40;1.57;;;1.37;;
12511;SDS011;6321;53.798;10.382;2023-04-03T11:04:07;2.37;;;1.50;;
12511;SDS011;6321;53.798;10.382;2023-04-03T11:06:36;2.43;;;1.23;;
12511;SDS011;6321;53.798;10.382;2023-04-03T11:09:11;2.37;;;1.50;;
12511;SDS011;6321;53.798;10.382;2023-04-03T11:11:41;4.40;;;1.13;;
12511;SDS011;6321;53.798;10.382;2023-04-03T11:16:55;2.57;;;1.23;;
12511;SDS011;6321;53.798;10.382;2023-04-03T11:22:15;3.40;;;1.80;;
12511;SDS011;6321;53.798;10.382;2023-04-03T11:24:42;2.53;;;1.23;;
12511;SDS011;6321;53.798;10.382;2023-04-03T11:27:15;2.17;;;1.23;;
12511;SDS011;6321;53.798;10.382;2023-04-03T11:29:43;2.63;;;1.23;;
12511;SDS011;6321;53.798;10.382;2023-04-03T11:34:53;3.93;;;1.23;;
12511;SDS011;6321;53.798;10.382;2023-04-03T11:37:46;3.53;;;1.40;;
12511;SDS011;6321;53.798;10.382;2023-04-03T11:42:40;2.13;;;1.20;;
12511;SDS011;6321;53.798;10.382;2023-04-03T11:50:43;2.27;;;1.00;;
12511;SDS011;6321;53.798;10.382;2023-04-03T11:58:11;3.50;;;1.60;;
12511;SDS011;6321;53.798;10.382;2023-04-03T12:05:51;1.67;;;1.20;;
12511;SDS011;6321;53.798;10.382;2023-04-03T12:08:24;2.00;;;1.30;;
12511;SDS011;6321;53.798;10.382;2023-04-03T12:16:21;6.60;;;1.20;;
12511;SDS011;6321;53.798;10.382;2023-04-03T12:21:20;1.93;;;1.27;;
12511;SDS011;6321;53.798;10.382;2023-04-03T12:24:01;1.50;;;1.00;;
12511;SDS011;6321;53.798;10.382;2023-04-03T12:29:10;3.37;;;1.40;;
12511;SDS011;6321;53.798;10.382;2023-04-03T12:31:46;1.60;;;1.10;;
12511;SDS011;6321;53.798;10.382;2023-04-03T12:34:18;1.77;;;1.07;;
12511;SDS011;6321;53.798;10.382;2023-04-03T12:36:54;3.33;;;1.40;;
12511;SDS011;6321;53.798;10.382;2023-04-03T12:39:41;3.10;;;1.53;;
12511;SDS011;6321;53.798;10.382;2023-04-03T12:47:16;2.33;;;1.27;;
12511;SDS011;6321;53.798;10.382;2023-04-03T12:49:44;10.43;;;2.47;;
12511;SDS011;6321;53.798;10.382;2023-04-03T12:52:24;2.83;;;1.17;;
12511;SDS011;6321;53.798;10.382;2023-04-03T12:54:54;3.93;;;1.93;;
12511;SDS011;6321;53.798;10.382;2023-04-03T12:57:23;2.80;;;1.73;;
12511;SDS011;6321;53.798;10.382;2023-04-03T12:59:50;4.03;;;1.27;;
12511;SDS011;6321;53.798;10.382;2023-04-03T13:02:20;2.80;;;1.37;;
12511;SDS011;6321;53.798;10.382;2023-04-03T13:04:46;3.13;;;1.40;;
12511;SDS011;6321;53.798;10.382;2023-04-03T13:07:20;2.97;;;1.20;;
12511;SDS011;6321;53.798;10.382;2023-04-03T13:09:54;2.50;;;1.30;;
12511;SDS011;6321;53.798;10.382;2023-04-03T13:12:20;2.33;;;1.30;;
12511;SDS011;6321;53.798;10.382;2023-04-03T13:14:56;3.23;;;1.30;;
12511;SDS011;6321;53.798;10.382;2023-04-03T13:17:23;3.03;;;1.40;;
12511;SDS011;6321;53.798;10.382;2023-04-03T13:19:49;2.37;;;1.20;;
12511;SDS011;6321;53.798;10.382;2023-04-03T13:22:26;2.13;;;1.30;;
12511;SDS011;6321;53.798;10.382;2023-04-03T13:24:54;3.97;;;1.67;;
12511;SDS011;6321;53.798;10.382;2023-04-03T13:27:20;4.70;;;1.60;;
12511;SDS011;6321;53.798;10.382;2023-04-03T13:29:50;1.73;;;1.10;;
12511;SDS011;6321;53.798;10.382;2023-04-03T13:32:18;2.93;;;1.73;;
12511;SDS011;6321;53.798;10.382;2023-04-03T13:34:44;2.30;;;1.40;;
12511;SDS011;6321;53.798;10.382;2023-04-03T13:37:19;6.43;;;1.73;;
12511;SDS011;6321;53.798;10.382;2023-04-03T13:39:45;2.07;;;1.30;;
12511;SDS011;6321;53.798;10.382;2023-04-03T13:45:09;2.17;;;1.10;;
12511;SDS011;6321;53.798;10.382;2023-04-03T13:47:39;1.73;;;1.17;;
12511;SDS011;6321;53.798;10.382;2023-04-03T13:52:45;3.60;;;1.43;;
12511;SDS011;6321;53.798;10.382;2023-04-03T13:55:20;3.40;;;1.40;;
12511;SDS011;6321;53.798;10.382;2023-04-03T13:57:51;2.33;;;1.40;;
12511;SDS011;6321;53.798;10.382;2023-04-03T14:01:00;3.40;;;1.30;;
12511;SDS011;6321;53.798;10.382;2023-04-03T14:03:23;3.53;;;1.50;;
12511;SDS011;6321;53.798;10.382;2023-04-03T14:05:52;3.27;;;1.30;;
12511;SDS011;6321;53.798;10.382;2023-04-03T14:08:19;3.20;;;1.60;;
12511;SDS011;6321;53.798;10.382;2023-04-03T14:10:45;4.93;;;2.00;;
12511;SDS011;6321;53.798;10.382;2023-04-03T14:13:16;4.47;;;1.60;;
12511;SDS011;6321;53.798;10.382;2023-04-03T14:15:43;1.77;;;1.30;;
12511;SDS011;6321;53.798;10.382;2023-04-03T14:18:13;1.63;;;1.10;;
12511;SDS011;6321;53.798;10.382;2023-04-03T14:20:39;3.37;;;1.50;;
12511;SDS011;6321;53.798;10.382;2023-04-03T14:23:05;2.57;;;1.43;;
12511;SDS011;6321;53.798;10.382;2023-04-03T14:25:32;3.20;;;1.60;;
12511;SDS011;6321;53.798;10.382;2023-04-03T14:27:58;3.07;;;1.40;;
12511;SDS011;6321;53.798;10.382;2023-04-03T14:30:26;6.40;;;1.57;;
12511;SDS011;6321;53.798;10.382;2023-04-03T14:32:53;4.77;;;1.53;;
12511;SDS011;6321;53.798;10.382;2023-04-03T14:35:19;4.27;;;1.40;;
12511;SDS011;6321;53.798;10.382;2023-04-03T14:37:46;1.57;;;1.47;;
12511;SDS011;6321;53.798;10.382;2023-04-03T14:40:14;3.77;;;1.40;;
12511;SDS011;6321;53.798;10.382;2023-04-03T14:42:40;4.63;;;1.67;;
12511;SDS011;6321;53.798;10.382;2023-04-03T14:45:09;5.33;;;1.70;;
12511;SDS011;6321;53.798;10.382;2023-04-03T14:47:37;3.17;;;1.50;;
12511;SDS011;6321;53.798;10.382;2023-04-03T14:50:06;2.80;;;1.70;;
12511;SDS011;6321;53.798;10.382;2023-04-03T14:52:34;3.97;;;1.90;;
12511;SDS011;6321;53.798;10.382;2023-04-03T14:55:00;4.80;;;1.97;;
12511;SDS011;6321;53.798;10.382;2023-04-03T14:57:29;3.20;;;1.40;;
12511;SDS011;6321;53.798;10.382;2023-04-03T14:59:55;4.57;;;1.50;;
12511;SDS011;6321;53.798;10.382;2023-04-03T15:04:47;2.77;;;1.30;;
12511;SDS011;6321;53.798;10.382;2023-04-03T15:07:13;2.33;;;1.77;;
12511;SDS011;6321;53.798;10.382;2023-04-03T15:09:40;5.27;;;1.50;;
12511;SDS011;6321;53.798;10.382;2023-04-03T15:12:07;5.53;;;1.63;;
12511;SDS011;6321;53.798;10.382;2023-04-03T15:14:34;2.67;;;1.43;;
12511;SDS011;6321;53.798;10.382;2023-04-03T15:17:00;3.60;;;1.50;;
12511;SDS011;6321;53.798;10.382;2023-04-03T15:19:27;4.33;;;1.73;;
12511;SDS011;6321;53.798;10.382;2023-04-03T15:21:52;4.33;;;1.57;;
12511;SDS011;6321;53.798;10.382;2023-04-03T15:24:18;4.97;;;1.97;;
12511;SDS011;6321;53.798;10.382;2023-04-03T15:26:44;6.37;;;1.90;;
12511;SDS011;6321;53.798;10.382;2023-04-03T15:29:11;3.47;;;1.50;;
12511;SDS011;6321;53.798;10.382;2023-04-03T15:31:37;3.97;;;1.50;;
12511;SDS011;6321;53.798;10.382;2023-04-03T15:34:03;2.93;;;1.30;;
12511;SDS011;6321;53.798;10.382;2023-04-03T15:36:29;6.50;;;1.80;;
12511;SDS011;6321;53.798;10.382;2023-04-03T15:38:55;3.70;;;1.70;;
12511;SDS011;6321;53.798;10.382;2023-04-03T15:41:21;2.37;;;1.20;;
12511;SDS011;6321;53.798;10.382;2023-04-03T15:43:47;3.30;;;1.40;;
12511;SDS011;6321;53.798;10.382;2023-04-03T15:46:13;2.47;;;1.50;;
12511;SDS011;6321;53.798;10.382;2023-04-03T15:48:39;3.53;;;1.73;;
12511;SDS011;6321;53.798;10.382;2023-04-03T15:51:05;3.03;;;1.97;;
12511;SDS011;6321;53.798;10.382;2023-04-03T15:53:32;2.10;;;1.60;;
12511;SDS011;6321;53.798;10.382;2023-04-03T15:55:58;4.03;;;1.87;;
12511;SDS011;6321;53.798;10.382;2023-04-03T15:58:24;2.40;;;1.47;;
12511;SDS011;6321;53.798;10.382;2023-04-03T16:00:50;5.03;;;1.80;;
12511;SDS011;6321;53.798;10.382;2023-04-03T16:03:17;3.77;;;1.60;;
12511;SDS011;6321;53.798;10.382;2023-04-03T16:05:43;3.63;;;1.77;;
12511;SDS011;6321;53.798;10.382;2023-04-03T16:08:09;2.50;;;1.53;;
12511;SDS011;6321;53.798;10.382;2023-04-03T16:10:35;3.03;;;1.50;;
12511;SDS011;6321;53.798;10.382;2023-04-03T16:13:02;3.80;;;1.80;;